Flight Track Log - Related Links

Times and Time Zones

All times are in EDT time to prevent confusion due to time zone crossing. See the GJS3707 flight status page for this flight to view local times or setup timezone preferences in your user account.

Time Position Orientation Groundspeed Altitude Reporting Facility
EDT Latitude Longitude Course Direction KTS MPH feet Rate Location/Type
Mon 03:13:37 PM 43.6178 -116.3658 302° West 227 261 6,600  Level Salt Lake Center
Mon 03:14:39 PM 43.6706 -116.3322 25° Northeast 259 298 8,300 1,887 Climbing Salt Lake Center
Mon 03:15:00 PM 43.6596 -115.5462 78° East  Level FlightAware Approximate
Mon 03:15:41 PM 43.6839 -116.2147 81° East 281 323 10,500  Level Salt Lake Center
Mon 03:16:00 PM 43.6781 -115.3742 83° East  Level FlightAware Approximate
Mon 03:16:43 PM 43.6975 -116.1075 80° East 292 336 12,500  Level Salt Lake Center
Mon 03:17:00 PM 43.7031 -115.2058 81° East  Level FlightAware Approximate
Mon 03:17:45 PM 43.7125 -115.9767 81° East 305 351 14,900  Level Salt Lake Center
Mon 03:18:48 PM 43.7258 -115.8572 81° East 325 374 16,600 1,824 Climbing Salt Lake Center
Mon 03:19:50 PM 43.7431 -115.7111 81° East 344 396 18,700 1,790 Climbing Salt Lake Center
Mon 03:20:52 PM 43.7578 -115.5842 81° East 350 403 20,300 1,597 Climbing Salt Lake Center
Mon 03:21:54 PM 43.7750 -115.4294 81° East 365 420 22,000 1,403 Climbing Salt Lake Center
Mon 03:22:56 PM 43.7911 -115.2914 81° East 378 435 23,200 1,452 Climbing Salt Lake Center
Mon 03:23:58 PM 43.8097 -115.1272 81° East 387 445 25,000 1,306 Climbing Salt Lake Center
Mon 03:25:00 PM 43.8258 -114.9806 81° East 402 463 25,900 871 Climbing Salt Lake Center
Mon 03:26:02 PM 43.8444 -114.8017 82° East 421 484 26,800 774 Climbing Salt Lake Center
Mon 03:27:04 PM 43.8617 -114.6425 81° East 438 504 27,500 774 Climbing Salt Lake Center
Mon 03:28:06 PM 43.8767 -114.4506 84° East 450 518 28,400 823 Climbing Salt Lake Center
Mon 03:29:08 PM 43.8856 -114.2825 86° East 455 524 29,200 823 Climbing Salt Lake Center
Mon 03:30:10 PM 43.8967 -114.0825 86° East 467 537 30,100 823 Climbing Salt Lake Center
Mon 03:31:12 PM 43.9056 -113.9106 86° East 467 537 30,900 435 Climbing Salt Lake Center
Mon 03:32:14 PM 43.9164 -113.7106 86° East 478 550 31,000 339 Climbing Salt Lake Center
Mon 03:33:16 PM 43.9247 -113.5281 86° East 493 567 31,600 484 Climbing Salt Lake Center
Mon 03:34:18 PM 43.9322 -113.3169 87° East 491 565 32,000 194 Climbing Salt Lake Center
Mon 03:35:20 PM 43.9414 -113.1353 86° East 495 570 32,000 97 Level Salt Lake Center
Mon 03:36:22 PM 43.9506 -112.9228 86° East 496 571 32,200 435 Climbing Salt Lake Center
Mon 03:37:24 PM 43.9583 -112.7414 87° East 493 567 32,900 774 Climbing Salt Lake Center
Mon 03:38:26 PM 43.9669 -112.5314 87° East 491 565 33,800 774 Climbing Salt Lake Center
Mon 03:39:28 PM 43.9742 -112.3528 87° East 487 560 34,500 823 Climbing Salt Lake Center
Mon 03:40:30 PM 43.9808 -112.1467 87° East 481 554 35,500 823 Climbing Salt Lake Center
Mon 03:41:32 PM 43.9858 -111.9719 88° East 478 550 36,200 581 Climbing Salt Lake Center
Mon 03:42:34 PM 43.9936 -111.8025 86° East 468 539 36,700 387 Climbing Salt Lake Center
Mon 03:43:36 PM 43.9986 -111.5994 88° East 473 544 37,000 145 Climbing Salt Lake Center
Mon 03:44:38 PM 44.0028 -111.4256 88° East 475 547 37,000  Level Salt Lake Center
Mon 03:45:40 PM 44.0100 -111.2206 87° East 479 551 37,000  Level Salt Lake Center
Mon 03:46:42 PM 44.0150 -111.0461 88° East 477 549 37,000  Level Salt Lake Center
Mon 03:47:44 PM 44.0203 -110.8408 88° East 478 550 37,000  Level Salt Lake Center
Mon 03:48:46 PM 44.0244 -110.6656 88° East 477 549 37,000  Level Salt Lake Center
Mon 03:49:48 PM 44.0281 -110.4631 89° East 473 544 37,000  Level Salt Lake Center
Mon 03:50:50 PM 44.0331 -110.2867 88° East 476 548 37,000  Level Salt Lake Center
Mon 03:51:51 PM 44.0361 -110.0836 89° East 473 544 37,000  Level Salt Lake Center
Mon 03:52:53 PM 44.0381 -109.9094 89° East 474 545 37,000  Level Salt Lake Center
Mon 03:53:55 PM 44.0425 -109.7047 88° East 475 547 37,000  Level Salt Lake Center
Mon 03:54:57 PM 44.0447 -109.5294 89° East 475 547 37,000  Level Salt Lake Center
Mon 03:55:59 PM 44.0458 -109.3469 89° East 474 545 37,000  Level Salt Lake Center
Mon 03:57:01 PM 44.0475 -109.1417 89° East 477 549 37,000  Level Salt Lake Center
Mon 03:58:03 PM 44.0497 -108.9653 89° East 478 550 37,000  Level Salt Lake Center
Mon 03:59:05 PM 44.0508 -108.7597 89° East 479 551 37,000  Level Salt Lake Center
Mon 04:00:06 PM 44.0517 -108.5833 90° East 478 550 37,000  Level Salt Lake Center
Mon 04:01:08 PM 44.0336 -108.3772 97° East 484 557 37,000  Level Salt Lake Center
Mon 04:02:10 PM 44.0175 -108.2022 97° East 482 555 37,000  Level Salt Lake Center
Mon 04:03:12 PM 43.9986 -107.9975 97° East 480 552 37,000  Level Salt Lake Center
Mon 04:04:13 PM 43.9736 -107.8206 101° East 487 560 37,000  Level Salt Lake Center
Mon 04:05:16 PM 43.9458 -107.6156 101° East 487 560 37,000  Level Salt Lake Center
Mon 04:06:17 PM 43.9203 -107.4422 102° East 484 557 37,000  Level Salt Lake Center
Mon 04:07:19 PM 43.8869 -107.2675 105° East 490 564 37,000  Level Salt Lake Center
Mon 04:08:21 PM 43.8472 -107.0647 105° East 490 564 37,000  Level Salt Lake Center
Mon 04:09:23 PM 43.8094 -106.8725 105° East 489 563 37,000  Level Salt Lake Center
Mon 04:10:16 PM 43.7836 -106.7233 103° East 486 559 37,000  Level Denver Center
Mon 04:11:18 PM 43.7675 -106.5150 96° East 486 559 37,000  Level Denver Center
Mon 04:12:20 PM 43.7694 -106.3317 89° East 494 568 37,000  Level Denver Center
Mon 04:13:22 PM 43.7722 -106.1192 89° East 495 570 37,000  Level Denver Center
Mon 04:14:24 PM 43.7719 -105.9372 90° East 494 568 37,000  Level Denver Center
Mon 04:15:26 PM 43.7733 -105.7242 89° East 495 570 37,000  Level Denver Center
Mon 04:16:28 PM 43.7731 -105.5419 90° East 494 568 37,000  Level Denver Center
Mon 04:17:30 PM 43.7731 -105.3611 90° East 491 565 37,000 145 Level Denver Center
Mon 04:18:32 PM 43.7719 -105.1461 90° East 496 571 37,300 387 Climbing Denver Center
Mon 04:19:34 PM 43.7708 -104.9631 90° East 496 571 37,800 484 Climbing Denver Center
Mon 04:20:36 PM 43.7692 -104.7517 91° East 492 566 38,300 581 Climbing Denver Center
Mon 04:21:38 PM 43.7669 -104.5747 91° East 484 557 39,000 339 Climbing Denver Center
Mon 04:22:40 PM 43.7619 -104.3708 92° East 478 550 39,000  Level Denver Center
Mon 04:23:42 PM 43.7339 -104.2294 105° East 479 551 39,000  Level Denver Center
Mon 04:24:44 PM 43.6853 -104.0394 109° East 470 541 39,000  Level Denver Center
Mon 04:25:46 PM 43.6331 -103.8503 111° Southeast 470 541 39,000  Level Denver Center
Mon 04:26:48 PM 43.5869 -103.6889 111° Southeast 472 543 39,000  Level Denver Center
Mon 04:27:50 PM 43.5331 -103.5014 112° Southeast 470 541 39,000 48 Level Denver Center
Mon 04:28:52 PM 43.4828 -103.3389 113° Southeast 476 548 39,100  Climbing Denver Center
Mon 04:29:54 PM 43.4253 -103.1497 113° Southeast 479 551 39,000 -48 Descending Denver Center
Mon 04:30:56 PM 43.3806 -102.9858 111° Southeast 478 550 39,000  Level Denver Center
Mon 04:31:58 PM 43.3536 -102.7867 100° East 477 549 39,000  Level Denver Center
Mon 04:33:12 PM 43.3581 -102.6114 88° East 477 549 39,000  Level Denver Center
Mon 04:34:15 PM 43.3617 -102.3756 89° East 483 556 39,000  Level Denver Center
Mon 04:35:17 PM 43.3642 -102.1992 89° East 483 556 39,000  Level Denver Center
Mon 04:36:31 PM 43.3650 -101.9953 90° East 484 557 39,000  Level Denver Center
Mon 04:37:33 PM 43.3669 -101.7725 89° East 487 560 39,000  Level Denver Center
Mon 04:38:35 PM 43.3669 -101.5869 90° East 487 560 39,000  Level Denver Center
Mon 04:39:37 PM 43.3669 -101.3992 90° East 492 566 39,000  Level Denver Center
Mon 04:40:39 PM 43.3672 -101.1744 90° East 491 565 39,000  Level Denver Center
Mon 04:41:42 PM 43.3681 -100.9867 90° East 494 568 39,000  Level Denver Center
Mon 04:42:44 PM 43.3672 -100.7969 90° East 496 571 39,000  Level Denver Center
Mon 04:43:46 PM 43.3658 -100.6075 91° East 498 573 39,000  Level Denver Center
Mon 04:44:48 PM 43.3644 -100.4181 91° East 497 572 39,000  Level Denver Center
Mon 04:45:12 PM 43.3639 -100.3436 91° East 499 574 39,000  Level Minneapolis Center
Mon 04:45:50 PM 43.3631 -100.2311 91° East 495 570 39,000  Level Denver Center
Mon 04:46:52 PM 43.3614 -100.0044 91° East 495 570 39,000  Level Denver Center
Mon 04:47:16 PM 43.3608 -99.9322 91° East 493 567 39,000  Level Minneapolis Center
Mon 04:48:18 PM 43.3578 -99.7442 91° East 493 567 39,000  Level Minneapolis Center
Mon 04:49:20 PM 43.3550 -99.5572 91° East 492 566 39,000  Level Minneapolis Center
Mon 04:50:22 PM 43.3522 -99.3719 91° East 489 563 39,000  Level Minneapolis Center
Mon 04:51:25 PM 43.3497 -99.1856 91° East 489 563 39,000  Level Minneapolis Center
Mon 04:52:27 PM 43.3456 -98.9714 91° East 493 567 39,000  Level Minneapolis Center
Mon 04:53:29 PM 43.3419 -98.7861 91° East 491 565 39,000  Level Minneapolis Center
Mon 04:54:31 PM 43.3381 -98.6000 92° East 489 563 39,000  Level Minneapolis Center
Mon 04:55:33 PM 43.3333 -98.4128 92° East 492 566 39,000  Level Minneapolis Center
Mon 04:56:35 PM 43.3294 -98.2267 92° East 491 565 39,000  Level Minneapolis Center
Mon 04:57:37 PM 43.3231 -98.0044 92° East 489 563 39,000  Level Minneapolis Center
Mon 04:58:39 PM 43.3178 -97.8194 92° East 489 563 39,000  Level Minneapolis Center
Mon 04:59:41 PM 43.3111 -97.6356 93° East 486 559 39,000  Level Minneapolis Center
Mon 05:00:43 PM 43.3064 -97.4522 92° East 485 558 39,000  Level Minneapolis Center
Mon 05:01:45 PM 43.2994 -97.2667 93° East 486 559 39,000  Level Minneapolis Center
Mon 05:02:47 PM 43.2917 -97.0464 93° East 487 560 39,000  Level Minneapolis Center
Mon 05:03:50 PM 43.2842 -96.8622 93° East 486 559 39,000  Level Minneapolis Center
Mon 05:04:52 PM 43.2781 -96.6831 93° East 480 552 39,000  Level Minneapolis Center
Mon 05:05:54 PM 43.2708 -96.5011 93° East 480 552 39,000  Level Minneapolis Center
Mon 05:06:56 PM 43.2622 -96.3208 94° East 479 551 39,000  Level Minneapolis Center
Mon 05:07:58 PM 43.2528 -96.1028 93° East 482 555 39,000  Level Minneapolis Center
Mon 05:09:00 PM 43.2447 -95.9217 93° East 481 554 39,000  Level Minneapolis Center
Mon 05:10:02 PM 43.2364 -95.7394 94° East 482 555 39,000  Level Minneapolis Center
Mon 05:11:04 PM 43.2269 -95.5589 94° East 481 554 39,000  Level Minneapolis Center
Mon 05:12:06 PM 43.2186 -95.3758 94° East 483 556 39,000  Level Minneapolis Center
Mon 05:13:08 PM 43.2072 -95.1553 94° East 487 560 39,000  Level Minneapolis Center
Mon 05:14:10 PM 43.1969 -94.9714 94° East 487 560 39,000  Level Minneapolis Center
Mon 05:15:12 PM 43.1867 -94.7861 94° East 490 564 39,000  Level Minneapolis Center
Mon 05:16:15 PM 43.1761 -94.6003 94° East 490 564 39,000  Level Minneapolis Center
Mon 05:17:17 PM 43.1639 -94.4153 95° East 491 565 39,000  Level Minneapolis Center
Mon 05:18:19 PM 43.1528 -94.2211 94° East 495 570 39,000  Level Minneapolis Center
Mon 05:19:21 PM 43.1414 -94.0353 95° East 495 570 39,000  Level Minneapolis Center
Mon 05:20:23 PM 43.1264 -93.8106 95° East 499 574 39,000  Level Minneapolis Center
Mon 05:21:25 PM 43.1133 -93.6219 95° East 501 577 39,000  Level Minneapolis Center
Mon 05:22:27 PM 43.1022 -93.4344 95° East 500 575 39,000  Level Minneapolis Center
Mon 05:23:29 PM 43.0883 -93.2442 96° East 505 581 39,000  Level Minneapolis Center
Mon 05:24:43 PM 43.0744 -93.0197 95° East 500 575 39,000  Level Minneapolis Center
Mon 05:25:45 PM 43.1392 -92.8131 67° East 499 574 39,000  Level Minneapolis Center
Mon 05:26:47 PM 43.2147 -92.6553 57° Northeast 496 571 39,000  Level Minneapolis Center
Mon 05:27:49 PM 43.2447 -92.4700 77° East 506 582 39,000 -242 Level Minneapolis Center
Mon 05:28:51 PM 43.2103 -92.2911 105° East 492 566 38,500 -1,258 Descending Minneapolis Center
Mon 05:29:53 PM 43.1533 -92.1167 114° Southeast 502 578 36,400 -2,081 Descending Minneapolis Center
Mon 05:30:55 PM 43.0961 -91.9431 114° Southeast 504 580 34,200 -2,257 Descending Minneapolis Center
Mon 05:31:34 PM 43.0511 -91.8081 114° Southeast 494 568 32,600 -1,604 Descending Chicago Center
Mon 05:32:36 PM 42.9969 -91.6403 114° Southeast 481 554 31,500 -1,059 Descending Chicago Center
Mon 05:32:59 PM 42.9756 -91.5703 113° Southeast 486 559 31,100 -357 Descending Minneapolis Center
Mon 05:34:00 PM 42.9525 -91.3756 99° East 510 587 31,000 -59 Descending Minneapolis Center
Mon 05:34:40 PM 42.9342 -91.2622 102° East 514 592 31,000  Level Chicago Center
Mon 05:35:42 PM 42.9019 -91.0689 103° East 523 602 31,000  Level Chicago Center
Mon 05:36:44 PM 42.8703 -90.8747 102° East 527 606 31,000  Level Chicago Center
Mon 05:37:47 PM 42.8300 -90.6456 103° East 524 603 31,000  Level Chicago Center
Mon 05:38:49 PM 42.7964 -90.4550 103° East 522 601 31,000 -97 Level Chicago Center
Mon 05:39:51 PM 42.7639 -90.2664 103° East 519 597 30,800 -1,113 Descending Chicago Center
Mon 05:40:53 PM 42.7306 -90.0767 103° East 520 598 28,700 -2,323 Descending Chicago Center
Mon 05:41:55 PM 42.6922 -89.8700 104° East 489 563 26,000 -2,613 Descending Chicago Center
Mon 05:42:57 PM 42.6656 -89.7053 102° East 461 531 23,300 -2,565 Descending Chicago Center
Mon 05:43:59 PM 42.6369 -89.5425 103° East 450 518 20,700 -2,468 Descending Chicago Center
Mon 05:45:01 PM 42.6086 -89.3847 104° East 435 501 18,200 -2,565 Descending Chicago Center
Mon 05:46:03 PM 42.5761 -89.2106 104° East 415 478 15,400 -2,177 Descending Chicago Center
Mon 05:47:05 PM 42.5492 -89.0778 105° East 375 432 13,700 -1,694 Descending Chicago Center
Mon 05:48:07 PM 42.5128 -88.9564 112° Southeast 347 399 11,900 -1,584 Descending Chicago Center
Mon 05:49:10 PM 42.4781 -88.8433 113° Southeast 332 382 10,400 -864 Descending Chicago Center
Mon 05:50:12 PM 42.4461 -88.7367 112° Southeast 314 361 10,100 -194 Descending Chicago Center
Mon 05:51:14 PM 42.4058 -88.6072 113° Southeast 320 368 10,000 -48 Descending Chicago Center
Mon 05:52:16 PM 42.3731 -88.4953 112° Southeast 318 366 10,000 -774 Level Chicago Center
Mon 05:53:18 PM 42.3408 -88.3900 112° Southeast 306 352 8,400 -1,500 Descending Chicago Center
Mon 05:54:20 PM 42.2869 -88.2994 129° Southeast 299 344 6,900 -677 Descending Chicago Center
Mon 05:55:22 PM 42.2356 -88.2144 129° Southeast 295 339 7,000 48 Climbing Chicago Center
Mon 05:56:24 PM 42.1817 -88.1311 131° Southeast 296 341 7,000  Level Chicago Center
Mon 05:57:18 PM 42.1167 -88.0500 137° Southeast 296 341 7,000  Level Chicago TRACON
Mon 05:58:18 PM 42.1000 -87.9667 105° East 296 341 7,000 -45 Level Chicago TRACON
Mon 05:59:30 PM 42.0911 -87.8344 95° East 286 329 6,900 -985 Descending Chicago Center
Mon 06:00:32 PM 42.0917 -87.7481 89° East 245 282 4,800 -1,872 Descending Chicago Center
Mon 06:01:35 PM 42.0478 -87.7036 143° Southeast 228 262 3,000 -1,152 Descending Chicago Center
Mon 06:02:37 PM 42.0114 -87.7567 227° Southwest 206 237 2,400 -629 Descending Chicago Center
Mon 06:03:39 PM 42.0019 -87.8300 260° West 179 206 1,700 -581 Descending Chicago Center
Mon 06:04:41 PM 42.0036 -87.8681 273° West 160 184 1,200 -484 Descending Chicago Center

Login

Don't have an account? Register now (free) for customized features, flight alerts, and more!